Himawari 2 — JG5636 — position and weather

sailwx.info

Track history (hours):
 
Tides and Currents Weather Stations Pressure Air Temp Water Temp Dewpoint Dewpoint Depression Visibility Wind Speed Wind Dir Waves Ship Positions

Himawari 2

Last reported at 2016-Jul-29 19:33 UTC. Time now 2016-Jul-29 19:44 UTC.
Position N 35°25' E 140°42'.

Length 161 m; draft 6.5 m.

Type: Cargo ship. MMSI: 431100957.

Date/timePositionNaut miles runAvg speedWind from/ knotsBaromVisibWave heightAir tempDewpointWater temp
2016-Jul-29 19:33N 35°25' E 140°42'2323.2
2016-Jul-29 18:33N 35°43' E 140°59'2323.3
2016-Jul-29 17:34N 36°06' E 141°02'2423.5
2016-Jul-29 16:33N 36°30' E 141°02'2423.7
2016-Jul-29 15:33N 36°54' E 141°03'2323.4
2016-Jul-29 14:33N 37°16' E 141°11'  
2016-Jul-26 19:30N 35°24' E 140°49'1818.9
2016-Jul-26 18:33N 35°10' E 140°35'1818.4
2016-Jul-26 17:33N 34°58' E 140°18'2019.6
2016-Jul-26 16:33N 34°50' E 139°56'1615.8
2016-Jul-26 15:33N 35°00' E 139°41'1615.7
2016-Jul-26 14:33N 35°16' E 139°46'1110.8
2016-Jul-26 13:34N 35°26' E 139°46'1010.1
2016-Jul-26 12:33N 35°36' E 139°48'0 0.0
2016-Jul-26 11:32N 35°36' E 139°48'0 0.0
2016-Jul-26 10:32N 35°36' E 139°48'0 0.0
2016-Jul-26 09:29N 35°36' E 139°48'0 0.0
2016-Jul-26 08:32N 35°36' E 139°48'0 0.0
2016-Jul-26 07:32N 35°36' E 139°48'0 0.0
2016-Jul-26 06:32N 35°36' E 139°48'0 0.0
2016-Jul-26 05:32N 35°36' E 139°48'0 0.0
2016-Jul-26 04:32N 35°36' E 139°48'0 0.0
2016-Jul-26 03:32N 35°36' E 139°48'0 0.0
2016-Jul-26 02:29N 35°36' E 139°48'0 0.0
2016-Jul-26 01:32N 35°36' E 139°48'0 0.0
2016-Jul-26 00:32N 35°36' E 139°48'0 0.1
2016-Jul-25 23:33N 35°36' E 139°48'10 9.7
2016-Jul-25 22:33N 35°27' E 139°50'1212.0
2016-Jul-25 21:33N 35°15' E 139°47'1514.7
2016-Jul-25 20:33N 35°01' E 139°40'1817.9
2016-Jul-25 19:31N 34°50' E 139°22'6419.6
2016-Jul-25 16:15N 34°16' E 138°16'16520.4
2016-Jul-25 08:10N 33°55' E 134°59'1423.6
2016-Jul-25 07:33N 34°09' E 134°59'2222.0
2016-Jul-25 06:34N 34°29' E 135°10'1615.7
2016-Jul-25 05:34N 34°39' E 135°24'0 0.2
2016-Jul-25 04:23N 34°40' E 135°24'0 0.0
2016-Jul-25 03:29N 34°40' E 135°24'0 0.0
2016-Jul-25 02:29N 34°40' E 135°24'0 0.0
2016-Jul-25 01:29N 34°40' E 135°24'0 0.0
2016-Jul-25 00:29N 34°40' E 135°24'0 0.0
2016-Jul-24 23:23N 34°40' E 135°24'0 0.0
2016-Jul-24 22:29N 34°40' E 135°24'0 0.0
2016-Jul-24 21:29N 34°40' E 135°24'0 0.0
2016-Jul-24 20:29N 34°40' E 135°24'0 0.0
2016-Jul-24 19:29N 34°40' E 135°24'0 0.0
2016-Jul-24 18:23N 34°40' E 135°24'0 0.0
2016-Jul-24 17:29N 34°40' E 135°24'0 0.0
2016-Jul-24 16:29N 34°40' E 135°24'0 0.0
2016-Jul-24 15:29N 34°40' E 135°24'0 0.0
2016-Jul-24 14:11N 34°40' E 135°24'0 0.0
2016-Jul-24 13:29N 34°40' E 135°24'0 0.0
2016-Jul-24 12:29N 34°40' E 135°24'0 0.0
2016-Jul-24 11:29N 34°40' E 135°24'0 0.0
2016-Jul-24 10:29N 34°40' E 135°24'0 0.0
2016-Jul-24 09:17N 34°40' E 135°24'0 0.0
2016-Jul-24 08:29N 34°40' E 135°24'0 0.0
2016-Jul-24 07:29N 34°40' E 135°24'0 0.0
2016-Jul-24 06:29N 34°40' E 135°24'0 0.0
2016-Jul-24 05:29N 34°40' E 135°24'0 0.0
2016-Jul-24 04:29N 34°40' E 135°24'0 0.0
2016-Jul-24 03:29N 34°40' E 135°24'0 0.0
2016-Jul-24 02:33N 34°40' E 135°24'5 4.9
2016-Jul-24 01:33N 34°36' E 135°20'1919.4
2016-Jul-24 00:33N 34°22' E 135°04'1919.5
2016-Jul-23 23:34N 34°03' E 135°01'23617.5
2016-Jul-23 10:06N 35°03' E 139°37'1119.6
2016-Jul-23 09:33N 35°11' E 139°46'1312.6
2016-Jul-23 08:33N 35°23' E 139°42'1413.6
2016-Jul-23 07:34N 35°36' E 139°47'0 0.4
2016-Jul-23 06:31N 35°36' E 139°48'0 0.0
2016-Jul-23 04:31N 35°36' E 139°48'0 0.0
2016-Jul-23 03:31N 35°36' E 139°48'0 0.0
2016-Jul-23 02:31N 35°36' E 139°48'0 0.0
2016-Jul-23 01:33N 35°36' E 139°48'3 2.5
2016-Jul-23 00:34N 35°34' E 139°49'1413.6
2016-Jul-22 23:33N 35°21' E 139°45'1414.3
2016-Jul-22 22:34N 35°07' E 139°46'1615.8
2016-Jul-22 21:33N 34°53' E 139°57'2423.6
2016-Jul-22 20:32N 35°06' E 140°22'2323.2
2016-Jul-22 19:33N 35°23' E 140°41'2423.8
2016-Jul-22 18:33N 35°42' E 140°58'  
2016-Jul-19 21:33N 36°14' E 141°03'2718.7
2016-Jul-19 20:08N 35°47' E 141°02'  
Track history (hours):
 
Tides and Currents Weather Stations Pressure Air Temp Water Temp Dewpoint Dewpoint Depression Visibility Wind Speed Wind Dir Waves Ship Positions

Himawari 2

Last reported at 2016-Jul-29 19:33 UTC. Time now 2016-Jul-29 19:44 UTC.
Position N 35°25' E 140°42'.

Length 161 m; draft 6.5 m.

Type: Cargo ship. MMSI: 431100957.

Date/timePositionNaut miles runAvg speedWind from/ knotsBaromVisibWave heightAir tempDewpointWater temp
2016-Jul-29 19:33N 35°25' E 140°42'2323.2
2016-Jul-29 18:33N 35°43' E 140°59'2323.3
2016-Jul-29 17:34N 36°06' E 141°02'2423.5
2016-Jul-29 16:33N 36°30' E 141°02'2423.7
2016-Jul-29 15:33N 36°54' E 141°03'2323.4
2016-Jul-29 14:33N 37°16' E 141°11'  
2016-Jul-26 19:30N 35°24' E 140°49'1818.9
2016-Jul-26 18:33N 35°10' E 140°35'1818.4
2016-Jul-26 17:33N 34°58' E 140°18'2019.6
2016-Jul-26 16:33N 34°50' E 139°56'1615.8
2016-Jul-26 15:33N 35°00' E 139°41'1615.7
2016-Jul-26 14:33N 35°16' E 139°46'1110.8
2016-Jul-26 13:34N 35°26' E 139°46'1010.1
2016-Jul-26 12:33N 35°36' E 139°48'0 0.0
2016-Jul-26 11:32N 35°36' E 139°48'0 0.0
2016-Jul-26 10:32N 35°36' E 139°48'0 0.0
2016-Jul-26 09:29N 35°36' E 139°48'0 0.0
2016-Jul-26 08:32N 35°36' E 139°48'0 0.0
2016-Jul-26 07:32N 35°36' E 139°48'0 0.0
2016-Jul-26 06:32N 35°36' E 139°48'0 0.0
2016-Jul-26 05:32N 35°36' E 139°48'0 0.0
2016-Jul-26 04:32N 35°36' E 139°48'0 0.0
2016-Jul-26 03:32N 35°36' E 139°48'0 0.0
2016-Jul-26 02:29N 35°36' E 139°48'0 0.0
2016-Jul-26 01:32N 35°36' E 139°48'0 0.0
2016-Jul-26 00:32N 35°36' E 139°48'0 0.1
2016-Jul-25 23:33N 35°36' E 139°48'10 9.7
2016-Jul-25 22:33N 35°27' E 139°50'1212.0
2016-Jul-25 21:33N 35°15' E 139°47'1514.7
2016-Jul-25 20:33N 35°01' E 139°40'1817.9
2016-Jul-25 19:31N 34°50' E 139°22'6419.6
2016-Jul-25 16:15N 34°16' E 138°16'16520.4
2016-Jul-25 08:10N 33°55' E 134°59'1423.6
2016-Jul-25 07:33N 34°09' E 134°59'2222.0
2016-Jul-25 06:34N 34°29' E 135°10'1615.7
2016-Jul-25 05:34N 34°39' E 135°24'0 0.2
2016-Jul-25 04:23N 34°40' E 135°24'0 0.0
2016-Jul-25 03:29N 34°40' E 135°24'0 0.0
2016-Jul-25 02:29N 34°40' E 135°24'0 0.0
2016-Jul-25 01:29N 34°40' E 135°24'0 0.0
2016-Jul-25 00:29N 34°40' E 135°24'0 0.0
2016-Jul-24 23:23N 34°40' E 135°24'0 0.0
2016-Jul-24 22:29N 34°40' E 135°24'0 0.0
2016-Jul-24 21:29N 34°40' E 135°24'0 0.0
2016-Jul-24 20:29N 34°40' E 135°24'0 0.0
2016-Jul-24 19:29N 34°40' E 135°24'0 0.0
2016-Jul-24 18:23N 34°40' E 135°24'0 0.0
2016-Jul-24 17:29N 34°40' E 135°24'0 0.0
2016-Jul-24 16:29N 34°40' E 135°24'0 0.0
2016-Jul-24 15:29N 34°40' E 135°24'0 0.0
2016-Jul-24 14:11N 34°40' E 135°24'0 0.0
2016-Jul-24 13:29N 34°40' E 135°24'0 0.0
2016-Jul-24 12:29N 34°40' E 135°24'0 0.0
2016-Jul-24 11:29N 34°40' E 135°24'0 0.0
2016-Jul-24 10:29N 34°40' E 135°24'0 0.0
2016-Jul-24 09:17N 34°40' E 135°24'0 0.0
2016-Jul-24 08:29N 34°40' E 135°24'0 0.0
2016-Jul-24 07:29N 34°40' E 135°24'0 0.0
2016-Jul-24 06:29N 34°40' E 135°24'0 0.0
2016-Jul-24 05:29N 34°40' E 135°24'0 0.0
2016-Jul-24 04:29N 34°40' E 135°24'0 0.0
2016-Jul-24 03:29N 34°40' E 135°24'0 0.0
2016-Jul-24 02:33N 34°40' E 135°24'5 4.9
2016-Jul-24 01:33N 34°36' E 135°20'1919.4
2016-Jul-24 00:33N 34°22' E 135°04'1919.5
2016-Jul-23 23:34N 34°03' E 135°01'23617.5
2016-Jul-23 10:06N 35°03' E 139°37'1119.6
2016-Jul-23 09:33N 35°11' E 139°46'1312.6
2016-Jul-23 08:33N 35°23' E 139°42'1413.6
2016-Jul-23 07:34N 35°36' E 139°47'0 0.4
2016-Jul-23 06:31N 35°36' E 139°48'0 0.0
2016-Jul-23 04:31N 35°36' E 139°48'0 0.0
2016-Jul-23 03:31N 35°36' E 139°48'0 0.0
2016-Jul-23 02:31N 35°36' E 139°48'0 0.0
2016-Jul-23 01:33N 35°36' E 139°48'3 2.5
2016-Jul-23 00:34N 35°34' E 139°49'1413.6
2016-Jul-22 23:33N 35°21' E 139°45'1414.3
2016-Jul-22 22:34N 35°07' E 139°46'1615.8
2016-Jul-22 21:33N 34°53' E 139°57'2423.6
2016-Jul-22 20:32N 35°06' E 140°22'2323.2
2016-Jul-22 19:33N 35°23' E 140°41'2423.8
2016-Jul-22 18:33N 35°42' E 140°58'  
2016-Jul-19 21:33N 36°14' E 141°03'2718.7
2016-Jul-19 20:08N 35°47' E 141°02'  

Dump ship's entire track history